createdAt,value
2022-08-28T00:00:41.478Z,5.20
2022-08-28T00:03:13.531Z,5.28
2022-08-28T00:05:46.641Z,5.68
2022-08-28T00:08:18.496Z,4.97
2022-08-28T00:10:49.509Z,5.15
2022-08-28T00:13:23.393Z,4.78
2022-08-28T00:16:02.063Z,4.90
2022-08-28T00:18:32.678Z,4.65
2022-08-28T00:21:04.579Z,5.20
2022-08-28T00:23:42.995Z,5.00
2022-08-28T00:26:33.701Z,5.50
2022-08-28T00:29:05.458Z,5.82
2022-08-28T00:31:40.668Z,5.80
2022-08-28T00:34:12.034Z,5.85
2022-08-28T00:36:43.386Z,6.85
2022-08-28T00:39:13.401Z,6.20
2022-08-28T00:41:46.842Z,6.18
2022-08-28T00:44:25.090Z,6.07
2022-08-28T00:46:57.612Z,5.95
2022-08-28T00:49:31.905Z,6.45
2022-08-28T00:52:12.884Z,5.78
2022-08-28T00:55:03.815Z,6.95
2022-08-28T00:57:42.140Z,6.82
2022-08-28T01:00:20.412Z,6.15
2022-08-28T01:02:50.939Z,6.30
2022-08-28T01:05:21.882Z,6.00
2022-08-28T01:07:52.967Z,6.18
2022-08-28T01:10:25.954Z,6.78
2022-08-28T01:12:58.107Z,6.25
2022-08-28T01:15:33.178Z,5.75
2022-08-28T01:18:09.360Z,6.00
2022-08-28T01:20:46.987Z,6.68
2022-08-28T01:23:34.389Z,7.05
2022-08-28T01:26:06.568Z,6.60
2022-08-28T01:28:42.459Z,6.60
2022-08-28T01:31:14.972Z,8.82
2022-08-28T01:33:47.415Z,10.43
2022-08-28T01:36:18.891Z,11.02
2022-08-28T01:38:54.756Z,9.38
2022-08-28T01:41:25.023Z,9.90
2022-08-28T01:43:55.456Z,9.15
2022-08-28T01:46:25.557Z,8.57
2022-08-28T01:48:56.057Z,9.73
2022-08-28T01:51:26.085Z,9.40
2022-08-28T01:53:56.583Z,9.80
2022-08-28T01:56:27.386Z,10.18
2022-08-28T01:58:57.860Z,10.45
2022-08-28T02:01:27.897Z,9.00
2022-08-28T02:03:58.923Z,9.02
2022-08-28T02:06:29.004Z,9.00
2022-08-28T02:09:00.604Z,9.68
2022-08-28T02:11:32.089Z,8.40
2022-08-28T02:14:03.167Z,8.68
2022-08-28T02:16:33.205Z,9.98
2022-08-28T02:19:07.367Z,10.13
2022-08-28T02:21:37.380Z,9.27
2022-08-28T02:24:08.155Z,9.35
2022-08-28T02:26:41.113Z,10.40
2022-08-28T02:29:11.525Z,10.15
2022-08-28T02:31:41.597Z,10.68
2022-08-28T02:34:12.562Z,10.30
2022-08-28T02:36:43.786Z,11.82
2022-08-28T02:39:14.318Z,12.80
2022-08-28T02:41:44.438Z,10.80
2022-08-28T02:44:14.905Z,11.07
2022-08-28T02:46:45.123Z,11.02
2022-08-28T02:49:15.514Z,10.63
2022-08-28T02:51:45.577Z,9.82
2022-08-28T02:54:16.008Z,8.98
2022-08-28T02:56:49.553Z,9.27
2022-08-28T02:59:20.268Z,9.95
2022-08-28T03:01:50.514Z,8.98
2022-08-28T03:04:21.081Z,9.77
2022-08-28T03:06:52.454Z,8.93
2022-08-28T03:09:22.863Z,8.63
2022-08-28T03:11:55.253Z,8.48
2022-08-28T03:14:27.400Z,7.63
2022-08-28T03:16:57.528Z,7.65
2022-08-28T03:19:28.593Z,8.43
2022-08-28T03:21:58.610Z,9.07
2022-08-28T03:24:28.998Z,9.45
2022-08-28T03:26:59.551Z,8.88
2022-08-28T03:29:30.181Z,9.10
2022-08-28T03:32:01.471Z,8.65
2022-08-28T03:34:32.195Z,9.13
2022-08-28T03:37:02.443Z,8.38
2022-08-28T03:39:32.835Z,8.63
2022-08-28T03:42:02.645Z,7.70
2022-08-28T03:44:33.167Z,7.35
2022-08-28T03:47:03.160Z,7.70
2022-08-28T03:49:33.909Z,8.35
2022-08-28T03:52:05.427Z,7.53
2022-08-28T03:54:36.056Z,7.70
2022-08-28T03:57:06.199Z,7.63
2022-08-28T03:59:37.341Z,6.97
2022-08-28T04:02:07.342Z,6.80
2022-08-28T04:04:37.770Z,6.25
2022-08-28T04:07:07.881Z,6.90
2022-08-28T04:09:38.339Z,7.63
2022-08-28T04:12:09.592Z,6.85
2022-08-28T04:14:40.486Z,6.70
2022-08-28T04:17:13.604Z,5.80
2022-08-28T04:19:45.873Z,6.32
2022-08-28T04:22:15.885Z,5.85
2022-08-28T04:24:48.427Z,5.65
2022-08-28T04:27:21.536Z,5.50
2022-08-28T04:29:52.007Z,5.25
2022-08-28T04:32:25.606Z,5.10
2022-08-28T04:34:56.047Z,5.03
2022-08-28T04:37:27.856Z,4.65
2022-08-28T04:40:01.297Z,5.18
2022-08-28T04:42:31.292Z,6.07
2022-08-28T04:45:01.677Z,5.97
2022-08-28T04:47:32.153Z,5.30
2022-08-28T04:50:03.531Z,5.00
2022-08-28T04:52:33.659Z,5.50
2022-08-28T04:55:05.166Z,5.38
2022-08-28T04:57:36.652Z,5.10
2022-08-28T05:00:10.106Z,4.20
2022-08-28T05:02:40.189Z,3.95
2022-08-28T05:05:12.822Z,4.00
2022-08-28T05:07:42.824Z,3.65
2022-08-28T05:10:16.003Z,3.65
2022-08-28T05:12:46.163Z,2.65
2022-08-28T05:15:16.943Z,2.78
2022-08-28T05:17:49.334Z,2.33
2022-08-28T05:20:20.018Z,2.92
2022-08-28T05:25:19.588Z,2.67
2022-08-28T05:27:50.038Z,3.10
2022-08-28T05:32:49.257Z,2.83
2022-08-28T05:35:19.680Z,2.72
2022-08-28T05:37:49.546Z,2.40
2022-08-28T05:40:23.466Z,1.98
2022-08-28T05:42:54.114Z,2.10
2022-08-28T05:45:25.447Z,2.22
2022-08-28T05:47:55.500Z,2.00
2022-08-28T05:50:25.906Z,1.50
2022-08-28T05:52:56.010Z,2.13
2022-08-28T05:55:26.422Z,1.88
2022-08-28T05:58:16.722Z,1.70
2022-08-28T06:00:47.135Z,1.60
2022-08-28T06:03:17.181Z,1.35
2022-08-28T06:05:47.623Z,1.30
2022-08-28T06:08:17.675Z,1.40
2022-08-28T06:10:51.039Z,1.40
2022-08-28T06:13:21.734Z,1.60
2022-08-28T06:15:52.444Z,1.50
2022-08-28T06:18:22.512Z,1.35
2022-08-28T06:20:53.320Z,1.63
2022-08-28T06:23:24.707Z,1.63
2022-08-28T06:25:55.045Z,1.80
2022-08-28T06:31:22.973Z,1.88
2022-08-28T06:33:50.495Z,1.75
2022-08-28T06:36:20.939Z,1.65
2022-08-28T06:38:51.129Z,1.65
2022-08-28T06:41:21.576Z,1.80
2022-08-28T06:44:00.022Z,1.08
2022-08-28T06:46:31.604Z,1.20
2022-08-28T06:49:05.073Z,1.00
2022-08-28T06:51:36.152Z,0.90
2022-08-28T06:54:07.136Z,0.95
2022-08-28T06:56:37.863Z,1.00
2022-08-28T06:59:07.990Z,1.52
2022-08-28T07:01:39.301Z,2.03
2022-08-28T07:04:11.922Z,2.45
2022-08-28T07:06:47.186Z,2.38
2022-08-28T07:09:19.294Z,3.13
2022-08-28T07:11:50.197Z,3.10
2022-08-28T07:14:20.389Z,2.50
2022-08-28T07:16:51.890Z,3.65
2022-08-28T07:19:22.034Z,4.60
2022-08-28T07:21:52.755Z,3.05
2022-08-28T07:24:23.148Z,2.90
2022-08-28T07:26:54.211Z,3.67
2022-08-28T07:29:24.702Z,3.20
2022-08-28T07:32:00.102Z,3.75
2022-08-28T07:34:30.131Z,3.35
2022-08-28T07:37:05.271Z,3.08
2022-08-28T07:39:35.854Z,3.58
2022-08-28T07:42:06.758Z,3.45
2022-08-28T07:44:52.096Z,4.07
2022-08-28T07:47:23.995Z,3.72
2022-08-28T07:49:54.654Z,3.80
2022-08-28T07:52:25.346Z,3.20
2022-08-28T07:54:56.555Z,3.45
2022-08-28T07:57:27.445Z,3.67
2022-08-28T07:59:58.495Z,3.38
2022-08-28T08:02:29.214Z,4.03
2022-08-28T08:04:59.376Z,3.25
2022-08-28T08:07:31.129Z,3.58
2022-08-28T08:10:01.203Z,3.17
2022-08-28T08:12:33.010Z,3.00
2022-08-28T08:15:05.300Z,3.83
2022-08-28T08:17:36.132Z,3.33
2022-08-28T08:20:07.942Z,2.83
2022-08-28T08:22:38.832Z,3.38
2022-08-28T08:25:09.480Z,3.25
2022-08-28T08:27:42.933Z,3.33
2022-08-28T08:30:13.823Z,3.03
2022-08-28T08:32:44.457Z,3.92
2022-08-28T08:35:14.526Z,3.92
2022-08-28T08:37:45.240Z,4.07
2022-08-28T08:40:20.732Z,3.83
2022-08-28T08:42:58.261Z,3.67
2022-08-28T08:45:30.600Z,3.97
2022-08-28T08:48:02.991Z,4.63
2022-08-28T08:50:36.877Z,3.72
2022-08-28T08:53:54.351Z,3.55
2022-08-28T08:56:25.102Z,3.08
2022-08-28T08:59:12.902Z,4.22
2022-08-28T09:04:45.826Z,4.10
2022-08-28T09:07:22.447Z,3.72
2022-08-28T09:09:55.198Z,4.20
2022-08-28T09:12:27.247Z,4.30
2022-08-28T09:15:22.028Z,4.03
2022-08-28T09:17:57.442Z,4.05
2022-08-28T09:20:33.264Z,3.22
2022-08-28T09:23:12.877Z,3.50
2022-08-28T09:25:50.986Z,4.22
2022-08-28T09:28:31.370Z,3.85
2022-08-28T09:31:06.045Z,3.95
2022-08-28T09:33:44.317Z,3.53
2022-08-28T09:36:36.087Z,4.25
2022-08-28T09:39:28.184Z,3.40
2022-08-28T09:42:28.951Z,3.35
2022-08-28T09:45:21.358Z,4.47
2022-08-28T09:47:59.862Z,5.10
2022-08-28T09:50:37.636Z,4.30
2022-08-28T09:53:11.133Z,4.53
2022-08-28T09:55:59.535Z,3.25
2022-08-28T09:58:45.466Z,3.55
2022-08-28T10:01:45.520Z,3.90
2022-08-28T10:04:31.529Z,4.22
2022-08-28T10:07:18.523Z,3.45
2022-08-28T10:10:01.088Z,2.85
2022-08-28T10:13:00.630Z,2.80
2022-08-28T10:16:00.848Z,3.38
2022-08-28T10:18:37.658Z,3.50
2022-08-28T10:21:29.455Z,4.20
2022-08-28T10:24:12.009Z,3.38
2022-08-28T10:27:09.526Z,3.38
2022-08-28T10:30:00.327Z,3.67
2022-08-28T10:33:01.083Z,3.97
2022-08-28T10:38:43.263Z,2.67
2022-08-28T10:41:27.522Z,3.08
2022-08-28T10:44:02.089Z,2.40
2022-08-28T10:46:42.937Z,2.60
2022-08-28T10:49:30.242Z,2.47
2022-08-28T10:52:28.669Z,2.70
2022-08-28T10:55:20.004Z,2.95
2022-08-28T10:57:59.756Z,2.60
2022-08-28T11:00:31.152Z,2.30
2022-08-28T11:03:32.898Z,2.83
2022-08-28T11:06:15.228Z,2.10
2022-08-28T11:08:53.598Z,2.50
2022-08-28T11:12:02.428Z,2.58
2022-08-28T11:14:48.518Z,2.30
2022-08-28T11:17:31.435Z,2.05
2022-08-28T11:20:29.591Z,2.00
2022-08-28T11:23:12.469Z,2.30
2022-08-28T11:26:01.782Z,2.40
2022-08-28T11:28:38.351Z,2.20
2022-08-28T11:31:08.639Z,1.73
2022-08-28T11:33:49.785Z,2.28
2022-08-28T11:36:26.610Z,2.47
2022-08-28T11:41:40.198Z,2.10
2022-08-28T11:44:14.429Z,2.75
2022-08-28T11:46:47.527Z,2.90
2022-08-28T11:49:35.683Z,2.72
2022-08-28T11:52:12.706Z,3.00
2022-08-28T11:55:16.204Z,2.33
2022-08-28T11:57:49.671Z,2.22
2022-08-28T12:00:32.509Z,2.80
2022-08-28T12:03:28.767Z,2.55
2022-08-28T12:06:01.379Z,2.30
2022-08-28T12:08:47.163Z,2.25
2022-08-28T12:11:42.141Z,2.00
2022-08-28T12:14:38.070Z,2.58
2022-08-28T12:17:20.253Z,2.67
2022-08-28T12:20:15.601Z,2.15
2022-08-28T12:22:49.055Z,2.03
2022-08-28T12:25:39.519Z,2.92
2022-08-28T12:28:38.663Z,2.55
2022-08-28T12:31:49.927Z,1.77
2022-08-28T12:34:47.550Z,2.30
2022-08-28T12:37:29.119Z,2.00
2022-08-28T12:40:06.291Z,2.83
2022-08-28T12:42:41.550Z,2.55
2022-08-28T12:45:17.109Z,2.30
2022-08-28T12:47:50.376Z,2.67
2022-08-28T12:50:32.544Z,3.10
2022-08-28T12:53:05.826Z,2.60
2022-08-28T12:55:41.354Z,2.53
2022-08-28T12:58:34.327Z,3.13
2022-08-28T13:01:11.546Z,2.47
2022-08-28T13:03:51.889Z,3.45
2022-08-28T13:06:29.685Z,2.75
2022-08-28T13:09:05.050Z,3.45
2022-08-28T13:11:46.407Z,3.10
2022-08-28T13:14:36.239Z,2.72
2022-08-28T13:17:10.051Z,3.30
2022-08-28T13:19:40.468Z,2.53
2022-08-28T13:22:34.715Z,2.90
2022-08-28T13:25:08.389Z,3.08
2022-08-28T13:27:39.904Z,3.00
2022-08-28T13:30:27.444Z,3.30
2022-08-28T13:33:03.855Z,3.60
2022-08-28T13:35:37.373Z,3.55
2022-08-28T13:38:10.983Z,2.78
2022-08-28T13:41:02.085Z,3.55
2022-08-28T13:43:46.126Z,2.92
2022-08-28T13:46:16.291Z,3.10
2022-08-28T13:48:46.747Z,2.55
2022-08-28T13:51:19.077Z,2.90
2022-08-28T13:53:52.512Z,3.92
2022-08-28T13:56:22.637Z,2.83
2022-08-28T13:58:57.466Z,2.90
2022-08-28T14:01:51.140Z,3.85
2022-08-28T14:04:21.646Z,3.10
2022-08-28T14:06:52.263Z,4.13
2022-08-28T14:09:22.914Z,4.38
2022-08-28T14:11:53.195Z,4.07
2022-08-28T14:14:24.439Z,3.25
2022-08-28T14:16:56.244Z,4.05
2022-08-28T14:19:27.184Z,3.75
2022-08-28T14:21:57.436Z,2.97
2022-08-28T14:24:28.685Z,3.40
2022-08-28T14:26:58.788Z,4.15
2022-08-28T14:29:29.213Z,3.60
2022-08-28T14:32:01.259Z,3.20
2022-08-28T14:34:32.468Z,3.65
2022-08-28T14:37:03.046Z,3.33
2022-08-28T14:39:33.513Z,2.75
2022-08-28T14:42:03.973Z,3.30
2022-08-28T14:44:34.770Z,4.22
2022-08-28T14:47:05.210Z,3.75
2022-08-28T14:49:35.777Z,3.80
2022-08-28T14:52:05.786Z,4.10
2022-08-28T14:54:36.287Z,6.05
2022-08-28T14:57:06.400Z,3.53
2022-08-28T14:59:37.331Z,4.28
2022-08-28T15:02:08.136Z,2.85
2022-08-28T15:07:12.908Z,3.28
2022-08-28T15:09:44.716Z,4.15
2022-08-28T15:12:16.779Z,4.38
2022-08-28T15:14:54.650Z,4.30
2022-08-28T15:17:33.783Z,5.40
2022-08-28T15:22:35.574Z,4.05
2022-08-28T15:25:07.090Z,4.20
2022-08-28T15:27:37.815Z,4.70
2022-08-28T15:32:37.688Z,4.15
2022-08-28T15:35:08.670Z,4.78
2022-08-28T15:37:38.758Z,3.60
2022-08-28T15:40:27.488Z,4.45
2022-08-28T15:42:58.150Z,4.28
2022-08-28T15:45:28.447Z,5.90
2022-08-28T15:48:00.010Z,4.93
2022-08-28T15:50:30.015Z,5.82
2022-08-28T15:53:00.714Z,5.75
2022-08-28T15:55:33.668Z,5.88
2022-08-28T15:58:04.252Z,5.88
2022-08-28T16:00:38.950Z,6.78
2022-08-28T16:03:09.611Z,5.50
2022-08-28T16:08:11.962Z,4.10
2022-08-28T16:10:42.150Z,6.13
2022-08-28T16:13:12.774Z,5.13
2022-08-28T16:15:42.935Z,4.50
2022-08-28T16:18:16.651Z,4.68
2022-08-28T16:20:47.091Z,5.93
2022-08-28T16:23:17.746Z,5.05
2022-08-28T16:25:47.847Z,3.92
2022-08-28T16:28:18.431Z,6.13
2022-08-28T16:30:48.755Z,4.60
2022-08-28T16:33:21.844Z,8.88
2022-08-28T16:35:54.958Z,4.57
2022-08-28T16:38:27.352Z,2.85
2022-08-28T16:40:57.622Z,3.90
2022-08-28T16:43:28.794Z,3.90
2022-08-28T16:45:58.886Z,3.30
2022-08-28T16:48:29.616Z,3.83
2022-08-28T16:51:00.101Z,3.17
2022-08-28T16:53:30.575Z,3.80
2022-08-28T16:56:00.874Z,6.00
2022-08-28T16:58:34.371Z,4.90
2022-08-28T17:01:05.895Z,4.57
2022-08-28T17:03:38.943Z,4.60
2022-08-28T17:06:15.159Z,2.80
2022-08-28T17:08:46.827Z,3.10
2022-08-28T17:11:17.866Z,4.32
2022-08-28T17:13:50.081Z,3.47
2022-08-28T17:16:22.269Z,2.67
2022-08-28T17:18:53.284Z,3.30
2022-08-28T17:21:42.421Z,2.80
2022-08-28T17:24:15.058Z,4.53
2022-08-28T17:26:45.600Z,3.05
2022-08-28T17:29:16.760Z,3.67
2022-08-28T17:31:46.934Z,3.03
2022-08-28T17:34:20.576Z,2.70
2022-08-28T17:36:53.966Z,2.47
2022-08-28T17:39:26.400Z,3.13
2022-08-28T17:41:56.773Z,3.33
2022-08-28T17:44:30.144Z,2.22
2022-08-28T17:49:30.459Z,2.10
2022-08-28T17:52:03.080Z,2.28
2022-08-28T17:54:34.179Z,1.65
2022-08-28T17:57:04.402Z,2.00
2022-08-28T17:59:34.886Z,2.75
2022-08-28T18:02:04.972Z,2.05
2022-08-28T18:04:36.107Z,2.60
2022-08-28T18:07:06.816Z,2.30
2022-08-28T18:09:37.501Z,2.58
2022-08-28T18:12:12.502Z,2.50
2022-08-28T18:14:46.660Z,2.92
2022-08-28T18:17:17.288Z,2.08
2022-08-28T18:19:47.877Z,1.90
2022-08-28T18:22:17.950Z,2.35
2022-08-28T18:24:55.338Z,2.00
2022-08-28T18:27:27.716Z,2.63
2022-08-28T18:29:58.557Z,2.63
2022-08-28T18:34:58.820Z,2.28
2022-08-28T18:37:28.870Z,2.55
2022-08-28T18:39:59.460Z,2.17
2022-08-28T18:42:31.846Z,2.58
2022-08-28T18:45:03.280Z,1.70
2022-08-28T18:47:33.405Z,1.70
2022-08-28T18:50:05.207Z,2.00
2022-08-28T18:52:35.956Z,2.33
2022-08-28T18:55:07.666Z,2.28
2022-08-28T18:57:38.258Z,2.28
2022-08-28T19:02:41.782Z,2.15
2022-08-28T19:05:14.084Z,1.55
2022-08-28T19:07:44.215Z,2.08
2022-08-28T19:10:32.837Z,2.17
2022-08-28T19:13:06.625Z,3.15
2022-08-28T19:15:38.540Z,2.35
2022-08-28T19:18:08.915Z,2.67
2022-08-28T19:20:42.236Z,2.30
2022-08-28T19:23:16.901Z,2.15
2022-08-28T19:25:49.562Z,2.55
2022-08-28T19:28:19.591Z,1.77
2022-08-28T19:30:49.589Z,1.65
2022-08-28T19:33:20.283Z,1.90
2022-08-28T19:35:50.735Z,1.85
2022-08-28T19:38:21.184Z,2.10
2022-08-28T19:40:51.305Z,1.67
2022-08-28T19:43:25.057Z,1.90
2022-08-28T19:46:18.419Z,2.15
2022-08-28T19:48:56.296Z,2.13
2022-08-28T19:51:26.629Z,2.00
2022-08-28T19:53:59.029Z,2.42
2022-08-28T19:56:31.474Z,1.98
2022-08-28T19:59:04.605Z,3.03
2022-08-28T20:01:38.986Z,2.30
2022-08-28T20:04:10.868Z,2.50
2022-08-28T20:06:41.114Z,2.05
2022-08-28T20:09:13.050Z,1.40
2022-08-28T20:11:47.962Z,1.83
2022-08-28T20:14:20.267Z,1.50
2022-08-28T20:16:55.596Z,1.40
2022-08-28T20:19:26.076Z,1.60
2022-08-28T20:21:56.920Z,1.10
2022-08-28T20:24:27.655Z,1.55
2022-08-28T20:26:57.795Z,1.70
2022-08-28T20:29:28.323Z,1.80
2022-08-28T20:31:58.460Z,1.50
2022-08-28T20:34:30.045Z,1.50
2022-08-28T20:37:00.702Z,1.55
2022-08-28T20:39:31.256Z,2.50
2022-08-28T20:42:01.349Z,1.60
2022-08-28T20:47:01.382Z,1.58
2022-08-28T20:49:32.051Z,1.48
2022-08-28T20:52:06.921Z,1.92
2022-08-28T20:57:11.705Z,1.58
2022-08-28T20:59:44.191Z,1.90
2022-08-28T21:02:21.260Z,2.08
2022-08-28T21:04:52.283Z,2.13
2022-08-28T21:10:06.341Z,2.00
2022-08-28T21:15:13.681Z,2.60
2022-08-28T21:17:44.065Z,2.45
2022-08-28T21:20:17.309Z,2.30
2022-08-28T21:22:48.352Z,2.13
2022-08-28T21:27:49.250Z,1.35
2022-08-28T21:30:22.401Z,2.00
2022-08-28T21:32:52.991Z,2.08
2022-08-28T21:35:24.072Z,2.05
2022-08-28T21:37:54.130Z,2.00
2022-08-28T21:40:24.693Z,2.20
2022-08-28T21:42:54.753Z,2.67
2022-08-28T21:45:25.195Z,3.67
2022-08-28T21:47:55.459Z,3.42
2022-08-28T21:50:25.950Z,2.78
2022-08-28T21:52:56.581Z,2.20
2022-08-28T21:55:27.088Z,1.60
2022-08-28T21:57:57.115Z,1.92
2022-08-28T22:00:27.630Z,1.70
2022-08-28T22:02:57.700Z,2.78
2022-08-28T22:05:29.495Z,1.48
2022-08-28T22:07:59.508Z,2.88
2022-08-28T22:10:29.924Z,2.35
2022-08-28T22:12:59.925Z,2.47
2022-08-28T22:15:30.569Z,2.10
2022-08-28T22:18:01.101Z,2.00
2022-08-28T22:20:32.115Z,1.75
2022-08-28T22:25:44.366Z,1.40
2022-08-28T22:28:14.533Z,1.50
2022-08-28T22:30:45.186Z,1.23
2022-08-28T22:33:16.809Z,1.58
2022-08-28T22:38:17.109Z,1.70
2022-08-28T22:40:47.921Z,1.60
2022-08-28T22:43:18.981Z,2.00
2022-08-28T22:45:49.928Z,1.60
2022-08-28T22:48:20.983Z,1.73
2022-08-28T22:50:51.994Z,1.80
2022-08-28T22:55:52.867Z,1.60
2022-08-28T22:58:23.264Z,1.40
2022-08-28T23:00:54.533Z,1.40
2022-08-28T23:03:24.852Z,1.50
2022-08-28T23:05:55.637Z,5.18
2022-08-28T23:08:27.850Z,5.35
2022-08-28T23:11:01.165Z,4.55
2022-08-28T23:13:33.207Z,3.10
2022-08-28T23:16:05.012Z,2.33
2022-08-28T23:19:06.840Z,2.40
2022-08-28T23:21:29.548Z,2.10
2022-08-28T23:24:02.152Z,2.10
2022-08-28T23:26:32.681Z,1.73
2022-08-28T23:29:07.084Z,1.85
2022-08-28T23:31:38.369Z,2.28
2022-08-28T23:34:08.924Z,2.97
2022-08-28T23:36:39.645Z,7.82
2022-08-28T23:39:13.654Z,11.63
2022-08-28T23:44:13.242Z,2.67
2022-08-28T23:46:43.270Z,3.63
2022-08-28T23:49:14.898Z,8.27
2022-08-28T23:51:48.039Z,4.47
2022-08-28T23:54:22.652Z,2.75
2022-08-28T23:56:52.463Z,3.45
2022-08-28T23:59:22.938Z,2.58
